createdAt,value
2023-08-22T00:01:29.098Z,95908.19
2023-08-22T00:04:15.182Z,95908.16
2023-08-22T00:07:01.063Z,95895.84
2023-08-22T00:09:47.154Z,95898.06
2023-08-22T00:12:33.221Z,95896.38
2023-08-22T00:15:19.492Z,95868.72
2023-08-22T00:18:05.639Z,95889.81
2023-08-22T00:20:51.704Z,95892.56
2023-08-22T00:23:39.113Z,95879.69
2023-08-22T00:26:25.197Z,95882.41
2023-08-22T00:29:11.275Z,95890.34
2023-08-22T00:32:00.213Z,95889.06
2023-08-22T00:34:46.394Z,95881.34
2023-08-22T00:37:32.663Z,95876.69
2023-08-22T00:40:18.870Z,95882.44
2023-08-22T00:43:05.152Z,95889.84
2023-08-22T00:45:51.080Z,95888.19
2023-08-22T00:48:37.311Z,95885.97
2023-08-22T00:51:23.838Z,95878.56
2023-08-22T00:54:14.519Z,95867.91
2023-08-22T00:57:00.937Z,95889.28
2023-08-22T00:59:47.368Z,95888.75
2023-08-22T01:02:33.687Z,95879.44
2023-08-22T01:05:21.917Z,95883.56
2023-08-22T01:08:36.234Z,95888.75
2023-08-22T01:11:30.665Z,95878.59
2023-08-22T01:14:21.116Z,95898.06
2023-08-22T01:17:08.248Z,95896.41
2023-08-22T01:19:55.685Z,95890.94
2023-08-22T01:22:43.104Z,95883.25
2023-08-22T01:25:29.964Z,95887.63
2023-08-22T01:28:55.517Z,95892.59
2023-08-22T01:31:49.508Z,95891.78
2023-08-22T01:34:37.862Z,95883.28
2023-08-22T01:37:24.783Z,95892.03
2023-08-22T01:40:11.991Z,95901.38
2023-08-22T01:42:58.885Z,95896.44
2023-08-22T01:45:45.810Z,95903.81
2023-08-22T01:48:31.936Z,95909.06
2023-08-22T01:51:18.092Z,95896.44
2023-08-22T01:54:03.977Z,95891.78
2023-08-22T01:56:50.068Z,95897.81
2023-08-22T01:59:36.601Z,95896.44
2023-08-22T02:02:22.667Z,95887.69
2023-08-22T02:05:08.724Z,95889.31
2023-08-22T02:07:55.360Z,95884.13
2023-08-22T02:10:42.511Z,95898.09
2023-08-22T02:13:28.594Z,95866.00
2023-08-22T02:16:15.725Z,95894.81
2023-08-22T02:19:02.105Z,95885.78
2023-08-22T02:21:49.315Z,95891.34
2023-08-22T02:24:35.580Z,95872.03
2023-08-22T02:27:22.045Z,95879.72
2023-08-22T02:30:08.929Z,95875.63
2023-08-22T02:32:55.182Z,95889.88
2023-08-22T02:35:41.954Z,95884.66
2023-08-22T02:38:28.613Z,95873.69
2023-08-22T02:41:14.710Z,95890.97
2023-08-22T02:44:00.678Z,95889.06
2023-08-22T02:46:46.887Z,95892.59
2023-08-22T02:49:33.025Z,95895.31
2023-08-22T02:52:19.302Z,95884.38
2023-08-22T02:55:05.933Z,95887.09
2023-08-22T02:57:51.796Z,95866.28
2023-08-22T03:00:37.770Z,95885.75
2023-08-22T03:03:23.948Z,95884.38
2023-08-22T03:06:10.521Z,95873.94
2023-08-22T03:08:57.841Z,95887.38
2023-08-22T03:11:44.136Z,95883.84
2023-08-22T03:14:32.541Z,95887.38
2023-08-22T03:17:18.727Z,95873.94
2023-08-22T03:20:06.505Z,95867.13
2023-08-22T03:22:53.138Z,95890.66
2023-08-22T03:25:39.111Z,95875.34
2023-08-22T03:28:25.566Z,95889.03
2023-08-22T03:31:11.537Z,95884.91
2023-08-22T03:33:58.049Z,95889.03
2023-08-22T03:36:43.970Z,95902.16
2023-08-22T03:39:31.528Z,95898.06
2023-08-22T03:42:17.687Z,95907.09
2023-08-22T03:45:03.892Z,95901.03
2023-08-22T03:47:50.602Z,95907.91
2023-08-22T03:50:38.671Z,95906.25
2023-08-22T03:53:24.945Z,95887.09
2023-08-22T03:56:11.013Z,95897.47
2023-08-22T03:58:56.898Z,95904.06
2023-08-22T04:01:43.343Z,95893.94
2023-08-22T04:04:30.186Z,95896.38
2023-08-22T04:07:16.459Z,95896.13
2023-08-22T04:10:03.576Z,95903.53
2023-08-22T04:12:50.900Z,95902.94
2023-08-22T04:15:38.422Z,95894.19
2023-08-22T04:18:24.777Z,95890.34
2023-08-22T04:21:13.191Z,95904.34
2023-08-22T04:23:59.577Z,95904.03
2023-08-22T04:26:46.511Z,95898.84
2023-08-22T04:29:33.013Z,95898.28
2023-08-22T04:32:20.601Z,95899.38
2023-08-22T04:35:09.746Z,95898.59
2023-08-22T04:37:59.241Z,95902.13
2023-08-22T04:40:45.666Z,95900.22
2023-08-22T04:43:44.917Z,95898.28
2023-08-22T04:46:30.906Z,95901.84
2023-08-22T04:49:16.798Z,95905.69
2023-08-22T04:52:03.401Z,95902.94
2023-08-22T04:54:49.305Z,95894.44
2023-08-22T04:57:35.322Z,95897.47
2023-08-22T05:00:21.800Z,95897.47
2023-08-22T05:03:07.676Z,95910.63
2023-08-22T05:05:55.410Z,95913.09
2023-08-22T05:08:42.197Z,95903.25
2023-08-22T05:11:30.614Z,95922.72
2023-08-22T05:14:17.678Z,95927.91
2023-08-22T05:17:04.907Z,95919.41
2023-08-22T05:19:51.120Z,95919.41
2023-08-22T05:22:37.227Z,95902.72
2023-08-22T05:25:23.309Z,95912.28
2023-08-22T05:28:09.387Z,95934.50
2023-08-22T05:30:55.813Z,95933.66
2023-08-22T05:33:43.523Z,95929.84
2023-08-22T05:36:29.443Z,95936.41
2023-08-22T05:39:15.403Z,95931.22
2023-08-22T05:42:01.421Z,95932.84
2023-08-22T05:44:48.524Z,95937.22
2023-08-22T05:47:34.398Z,95937.25
2023-08-22T05:50:20.831Z,95923.00
2023-08-22T05:53:06.801Z,95925.19
2023-08-22T05:55:53.371Z,95927.38
2023-08-22T05:58:39.519Z,95925.50
2023-08-22T06:01:25.807Z,95928.22
2023-08-22T06:04:12.453Z,95943.59
2023-08-22T06:06:58.876Z,95950.97
2023-08-22T06:09:45.015Z,95933.72
2023-08-22T06:12:31.685Z,95947.69
2023-08-22T06:15:17.705Z,95928.47
2023-08-22T06:18:03.889Z,95940.03
2023-08-22T06:20:50.438Z,95930.16
2023-08-22T06:23:36.341Z,95922.50
2023-08-22T06:26:23.398Z,95939.22
2023-08-22T06:29:10.932Z,95923.03
2023-08-22T06:31:56.805Z,95932.06
2023-08-22T06:34:42.910Z,95935.09
2023-08-22T06:37:28.810Z,95936.47
2023-08-22T06:40:14.895Z,95915.06
2023-08-22T06:43:00.908Z,95935.34
2023-08-22T06:45:50.288Z,95938.09
2023-08-22T06:48:42.169Z,95938.66
2023-08-22T06:51:28.659Z,95932.03
2023-08-22T06:54:14.825Z,95941.38
2023-08-22T06:57:00.820Z,95925.47
2023-08-22T06:59:46.824Z,95946.03
2023-08-22T07:02:33.072Z,95926.03
2023-08-22T07:05:19.254Z,95936.97
2023-08-22T07:08:05.625Z,95933.66
2023-08-22T07:10:51.887Z,95915.84
2023-08-22T07:13:38.402Z,95915.56
2023-08-22T07:16:24.420Z,95916.09
2023-08-22T07:19:10.274Z,95915.78
2023-08-22T07:21:57.231Z,95910.00
2023-08-22T07:24:43.256Z,95924.78
2023-08-22T07:27:29.147Z,95933.50
2023-08-22T07:30:15.223Z,95907.44
2023-08-22T07:33:01.579Z,95911.25
2023-08-22T07:35:47.897Z,95887.09
2023-08-22T07:38:33.960Z,95908.47
2023-08-22T07:41:20.067Z,95915.88
2023-08-22T07:44:06.106Z,95910.84
2023-08-22T07:46:52.765Z,95897.66
2023-08-22T07:49:38.939Z,95903.06
2023-08-22T07:52:24.922Z,95917.28
2023-08-22T07:55:11.061Z,95899.75
2023-08-22T07:57:57.376Z,95900.75
2023-08-22T08:00:48.564Z,95885.38
2023-08-22T08:03:34.516Z,95898.56
2023-08-22T08:06:20.550Z,95879.84
2023-08-22T08:09:06.502Z,95878.91
2023-08-22T08:11:52.578Z,95896.38
2023-08-22T08:14:38.792Z,95882.94
2023-08-22T08:17:24.787Z,95898.78
2023-08-22T08:20:15.722Z,95890.28
2023-08-22T08:23:01.749Z,95895.09
2023-08-22T08:25:47.832Z,95897.44
2023-08-22T08:28:34.298Z,95895.63
2023-08-22T08:31:20.306Z,95897.44
2023-08-22T08:34:06.387Z,95893.03
2023-08-22T08:36:53.017Z,95883.97
2023-08-22T08:39:39.397Z,95864.66
2023-08-22T08:42:25.622Z,95871.94
2023-08-22T08:45:13.231Z,95873.56
2023-08-22T08:48:02.305Z,95873.97
2023-08-22T08:50:49.205Z,95891.97
2023-08-22T08:53:37.246Z,95891.59
2023-08-22T08:56:24.921Z,95877.28
2023-08-22T08:59:11.067Z,95886.56
2023-08-22T09:01:58.052Z,95886.06
2023-08-22T09:04:44.635Z,95875.66
2023-08-22T09:07:31.820Z,95878.50
2023-08-22T09:10:35.284Z,95872.91
2023-08-22T09:13:38.930Z,95869.72
2023-08-22T09:16:34.515Z,95865.13
2023-08-22T09:19:20.388Z,95865.13
2023-08-22T09:22:06.392Z,95859.53
2023-08-22T09:24:53.844Z,95864.28
2023-08-22T09:27:39.784Z,95852.34
2023-08-22T09:30:26.070Z,95843.16
2023-08-22T09:33:11.981Z,95836.00
2023-08-22T09:36:00.726Z,95837.66
2023-08-22T09:38:55.771Z,95844.63
2023-08-22T09:41:42.458Z,95837.38
2023-08-22T09:44:30.001Z,95844.41
2023-08-22T09:47:18.209Z,95835.72
2023-08-22T09:50:07.946Z,95828.66
2023-08-22T09:52:54.979Z,95831.31
2023-08-22T09:55:42.909Z,95832.75
2023-08-22T09:58:30.626Z,95823.09
2023-08-22T10:01:17.837Z,95820.81
2023-08-22T10:04:05.355Z,95808.78
2023-08-22T10:06:54.391Z,95813.13
2023-08-22T10:09:41.670Z,95812.38
2023-08-22T10:12:30.280Z,95817.06
2023-08-22T10:15:17.328Z,95817.25
2023-08-22T10:18:04.245Z,95812.25
2023-08-22T10:20:50.271Z,95797.56
2023-08-22T10:23:45.596Z,95808.66
2023-08-22T10:27:07.284Z,95798.75
2023-08-22T10:30:28.821Z,95795.00
2023-08-22T10:33:34.749Z,95791.66
2023-08-22T10:36:21.081Z,95767.41
2023-08-22T10:39:08.078Z,95773.34
2023-08-22T10:41:58.570Z,95768.91
2023-08-22T10:44:56.200Z,95778.56
2023-08-22T10:47:42.046Z,95761.88
2023-08-22T10:50:33.241Z,95768.88
2023-08-22T10:53:24.582Z,95759.50
2023-08-22T10:56:24.492Z,95765.41
2023-08-22T10:59:10.690Z,95779.22
2023-08-22T11:01:56.621Z,95777.63
2023-08-22T11:04:42.703Z,95762.16
2023-08-22T11:07:31.499Z,95768.22
2023-08-22T11:10:25.811Z,95770.34
2023-08-22T11:13:11.673Z,95756.22
2023-08-22T11:15:57.869Z,95763.69
2023-08-22T11:18:48.219Z,95760.78
2023-08-22T11:21:34.226Z,95769.09
2023-08-22T11:24:20.305Z,95763.91
2023-08-22T11:27:06.819Z,95777.63
2023-08-22T11:29:53.761Z,95773.03
2023-08-22T11:32:41.591Z,95773.53
2023-08-22T11:35:27.846Z,95765.88
2023-08-22T11:38:13.972Z,95766.50
2023-08-22T11:41:01.036Z,95748.06
2023-08-22T11:44:00.113Z,95749.84
2023-08-22T11:46:50.517Z,95738.13
2023-08-22T11:49:59.294Z,95748.53
2023-08-22T11:52:47.591Z,95743.84
2023-08-22T11:55:33.881Z,95726.06
2023-08-22T11:58:20.268Z,95735.97
2023-08-22T12:01:06.149Z,95742.00
2023-08-22T12:03:57.393Z,95729.44
2023-08-22T12:06:43.543Z,95741.50
2023-08-22T12:09:30.045Z,95735.78
2023-08-22T12:12:21.027Z,95736.25
2023-08-22T12:15:08.734Z,95723.53
2023-08-22T12:17:54.961Z,95731.66
2023-08-22T12:20:42.972Z,95731.47
2023-08-22T12:23:28.899Z,95723.63
2023-08-22T12:26:14.983Z,95723.78
2023-08-22T12:29:00.763Z,95707.47
2023-08-22T12:31:46.866Z,95708.38
2023-08-22T12:34:33.123Z,95721.75
2023-08-22T12:37:19.163Z,95720.91
2023-08-22T12:40:11.522Z,95718.28
2023-08-22T12:42:59.826Z,95708.63
2023-08-22T12:45:46.031Z,95693.44
2023-08-22T12:48:34.283Z,95707.69
2023-08-22T12:51:20.387Z,95700.66
2023-08-22T12:54:08.558Z,95702.06
2023-08-22T12:56:58.078Z,95706.47
2023-08-22T12:59:44.079Z,95710.34
2023-08-22T13:02:30.511Z,95680.59
2023-08-22T13:05:16.842Z,95694.63
2023-08-22T13:08:03.245Z,95686.72
2023-08-22T13:10:51.160Z,95681.75
2023-08-22T13:13:37.526Z,95683.16
2023-08-22T13:16:23.616Z,95679.25
2023-08-22T13:19:09.931Z,95667.72
2023-08-22T13:21:56.003Z,95654.03
2023-08-22T13:24:41.853Z,95677.53
2023-08-22T13:27:29.870Z,95667.66
2023-08-22T13:30:16.128Z,95651.31
2023-08-22T13:33:02.260Z,95648.81
2023-08-22T13:35:48.167Z,95656.84
2023-08-22T13:38:34.449Z,95656.16
2023-08-22T13:41:20.579Z,95663.25
2023-08-22T13:44:06.942Z,95655.84
2023-08-22T13:46:53.143Z,95654.81
2023-08-22T13:49:40.232Z,95650.06
2023-08-22T13:52:26.652Z,95644.41
2023-08-22T13:55:12.903Z,95645.69
2023-08-22T13:57:59.013Z,95652.44
2023-08-22T14:00:45.121Z,95663.22
2023-08-22T14:03:31.011Z,95659.59
2023-08-22T14:06:17.113Z,95668.69
2023-08-22T14:09:09.660Z,95659.41
2023-08-22T14:12:02.799Z,95650.44
2023-08-22T14:14:48.855Z,95665.72
2023-08-22T14:17:35.111Z,95654.53
2023-08-22T14:20:21.416Z,95666.72
2023-08-22T14:23:07.387Z,95667.22
2023-08-22T14:25:53.494Z,95665.22
2023-08-22T14:28:39.609Z,95661.66
2023-08-22T14:31:27.173Z,95648.81
2023-08-22T14:34:13.169Z,95652.97
2023-08-22T14:37:08.978Z,95650.00
2023-08-22T14:40:03.004Z,95642.38
2023-08-22T14:42:49.006Z,95654.25
2023-08-22T14:45:36.533Z,95637.41
2023-08-22T14:48:24.776Z,95633.34
2023-08-22T14:51:10.774Z,95649.06
2023-08-22T14:53:56.741Z,95635.16
2023-08-22T14:56:42.851Z,95648.22
2023-08-22T14:59:28.602Z,95646.75
2023-08-22T15:02:16.990Z,95656.13
2023-08-22T15:05:03.235Z,95658.63
2023-08-22T15:07:49.416Z,95648.97
2023-08-22T15:10:35.529Z,95651.03
2023-08-22T15:13:21.828Z,95667.06
2023-08-22T15:16:07.799Z,95652.78
2023-08-22T15:18:53.813Z,95654.22
2023-08-22T15:21:40.152Z,95641.53
2023-08-22T15:24:27.397Z,95644.31
2023-08-22T15:27:13.458Z,95654.69
2023-08-22T15:29:59.366Z,95662.72
2023-08-22T15:32:45.401Z,95647.13
2023-08-22T15:35:31.395Z,95645.75
2023-08-22T15:38:17.498Z,95639.31
2023-08-22T15:41:06.972Z,95637.59
2023-08-22T15:43:53.516Z,95629.94
2023-08-22T15:46:39.526Z,95636.69
2023-08-22T15:49:25.644Z,95642.44
2023-08-22T15:52:11.841Z,95632.63
2023-08-22T15:54:57.721Z,95636.78
2023-08-22T15:57:43.729Z,95628.13
2023-08-22T16:00:30.137Z,95633.63
2023-08-22T16:03:16.530Z,95644.25
2023-08-22T16:06:02.980Z,95653.19
2023-08-22T16:08:49.697Z,95652.41
2023-08-22T16:11:35.936Z,95648.34
2023-08-22T16:14:22.962Z,95644.09
2023-08-22T16:17:09.189Z,95657.31
2023-08-22T16:19:55.171Z,95654.09
2023-08-22T16:22:41.230Z,95656.50
2023-08-22T16:25:27.165Z,95668.59
2023-08-22T16:28:13.327Z,95650.84
2023-08-22T16:30:59.996Z,95660.59
2023-08-22T16:33:46.232Z,95649.63
2023-08-22T16:36:32.149Z,95652.88
2023-08-22T16:39:19.228Z,95648.59
2023-08-22T16:42:05.069Z,95642.66
2023-08-22T16:44:51.126Z,95644.78
2023-08-22T16:47:37.370Z,95659.25
2023-08-22T16:50:23.583Z,95657.63
2023-08-22T16:53:11.031Z,95664.66
2023-08-22T16:55:57.687Z,95665.34
2023-08-22T16:58:45.807Z,95658.81
2023-08-22T17:01:33.986Z,95657.78
2023-08-22T17:04:22.283Z,95665.03
2023-08-22T17:07:08.799Z,95657.78
2023-08-22T17:09:54.880Z,95667.28
2023-08-22T17:12:41.030Z,95666.56
2023-08-22T17:15:27.317Z,95657.19
2023-08-22T17:18:13.551Z,95679.84
2023-08-22T17:21:03.139Z,95672.88
2023-08-22T17:23:49.113Z,95673.13
2023-08-22T17:26:35.281Z,95664.25
2023-08-22T17:29:21.386Z,95677.22
2023-08-22T17:32:08.043Z,95663.81
2023-08-22T17:34:55.238Z,95684.91
2023-08-22T17:37:41.577Z,95676.53
2023-08-22T17:40:27.713Z,95673.78
2023-08-22T17:43:13.686Z,95698.06
2023-08-22T17:46:01.002Z,95707.22
2023-08-22T17:48:48.313Z,95694.34
2023-08-22T17:51:34.301Z,95700.75
2023-08-22T17:54:20.622Z,95710.38
2023-08-22T17:57:07.905Z,95712.66
2023-08-22T17:59:54.344Z,95704.38
2023-08-22T18:02:40.516Z,95711.03
2023-08-22T18:05:26.576Z,95707.16
2023-08-22T18:08:12.718Z,95713.16
2023-08-22T18:10:59.449Z,95718.22
2023-08-22T18:13:45.774Z,95723.13
2023-08-22T18:16:33.816Z,95731.09
2023-08-22T18:19:19.968Z,95730.28
2023-08-22T18:22:06.275Z,95730.97
2023-08-22T18:24:52.502Z,95715.94
2023-08-22T18:27:39.157Z,95720.34
2023-08-22T18:30:25.113Z,95739.25
2023-08-22T18:33:11.181Z,95736.44
2023-08-22T18:35:57.203Z,95728.25
2023-08-22T18:38:44.635Z,95736.09
2023-08-22T18:41:30.798Z,95741.47
2023-08-22T18:44:17.484Z,95748.28
2023-08-22T18:47:03.805Z,95728.69
2023-08-22T18:49:50.188Z,95728.78
2023-08-22T18:52:36.283Z,95742.81
2023-08-22T18:55:22.704Z,95745.41
2023-08-22T18:58:08.830Z,95737.53
2023-08-22T19:00:55.168Z,95738.34
2023-08-22T19:03:41.588Z,95735.38
2023-08-22T19:06:28.099Z,95753.47
2023-08-22T19:09:14.101Z,95735.47
2023-08-22T19:12:00.221Z,95739.69
2023-08-22T19:14:46.358Z,95750.44
2023-08-22T19:17:36.417Z,95746.69
2023-08-22T19:20:22.607Z,95737.78
2023-08-22T19:23:08.779Z,95735.16
2023-08-22T19:26:02.032Z,95742.78
2023-08-22T19:28:48.235Z,95749.06
2023-08-22T19:31:34.450Z,95748.22
2023-08-22T19:34:20.591Z,95749.66
2023-08-22T19:37:06.732Z,95755.78
2023-08-22T19:39:53.020Z,95743.38
2023-08-22T19:42:39.158Z,95742.88
2023-08-22T19:45:25.471Z,95749.31
2023-08-22T19:48:11.601Z,95753.81
2023-08-22T19:50:58.248Z,95741.19
2023-08-22T19:53:44.332Z,95743.22
2023-08-22T19:56:30.499Z,95746.66
2023-08-22T19:59:16.590Z,95757.28
2023-08-22T20:02:03.050Z,95755.97
2023-08-22T20:04:49.656Z,95761.78
2023-08-22T20:07:35.804Z,95763.56
2023-08-22T20:10:22.190Z,95751.06
2023-08-22T20:13:08.286Z,95769.16
2023-08-22T20:15:54.268Z,95769.28
2023-08-22T20:18:40.288Z,95763.53
2023-08-22T20:21:26.484Z,95765.28
2023-08-22T20:24:14.773Z,95765.56
2023-08-22T20:27:02.147Z,95767.63
2023-08-22T20:29:48.176Z,95765.28
2023-08-22T20:32:34.277Z,95774.72
2023-08-22T20:35:20.429Z,95773.69
2023-08-22T20:38:06.891Z,95771.31
2023-08-22T20:40:52.785Z,95775.22
2023-08-22T20:43:38.898Z,95773.69
2023-08-22T20:46:25.441Z,95775.63
2023-08-22T20:49:11.514Z,95773.25
2023-08-22T20:51:57.531Z,95774.19
2023-08-22T20:54:43.781Z,95781.44
2023-08-22T20:57:30.172Z,95777.91
2023-08-22T21:00:19.134Z,95764.75
2023-08-22T21:03:05.422Z,95778.34
2023-08-22T21:05:51.537Z,95783.13
2023-08-22T21:08:38.106Z,95793.63
2023-08-22T21:11:24.214Z,95789.66
2023-08-22T21:14:10.514Z,95791.38
2023-08-22T21:16:57.013Z,95784.31
2023-08-22T21:19:44.508Z,95764.16
2023-08-22T21:22:30.452Z,95769.47
2023-08-22T21:25:16.568Z,95774.16
2023-08-22T21:28:03.845Z,95771.47
2023-08-22T21:30:51.941Z,95760.53
2023-08-22T21:33:38.537Z,95782.47
2023-08-22T21:36:24.795Z,95759.47
2023-08-22T21:39:10.824Z,95779.19
2023-08-22T21:41:56.926Z,95762.41
2023-08-22T21:44:46.343Z,95780.25
2023-08-22T21:47:32.349Z,95764.13
2023-08-22T21:50:20.705Z,95765.75
2023-08-22T21:53:07.426Z,95779.22
2023-08-22T21:55:53.438Z,95777.38
2023-08-22T21:58:41.427Z,95779.94
2023-08-22T22:01:27.903Z,95784.38
2023-08-22T22:04:14.068Z,95770.78
2023-08-22T22:07:00.094Z,95756.56
2023-08-22T22:09:46.394Z,95788.31
2023-08-22T22:12:32.573Z,95784.56
2023-08-22T22:15:18.895Z,95772.56
2023-08-22T22:18:05.565Z,95782.69
2023-08-22T22:20:58.863Z,95782.16
2023-08-22T22:23:45.273Z,95787.66
2023-08-22T22:26:31.341Z,95774.56
2023-08-22T22:29:17.531Z,95773.47
2023-08-22T22:32:03.695Z,95762.56
2023-08-22T22:34:50.067Z,95779.53
2023-08-22T22:37:36.018Z,95774.09
2023-08-22T22:40:21.925Z,95765.09
2023-08-22T22:43:08.766Z,95771.41
2023-08-22T22:45:55.714Z,95777.97
2023-08-22T22:48:41.654Z,95761.34
2023-08-22T22:51:27.864Z,95764.03
2023-08-22T22:54:13.725Z,95765.22
2023-08-22T22:56:59.685Z,95778.69
2023-08-22T22:59:45.797Z,95769.06
2023-08-22T23:02:32.053Z,95762.56
2023-08-22T23:05:21.230Z,95778.22
2023-08-22T23:08:09.200Z,95768.63
2023-08-22T23:10:55.087Z,95767.91
2023-08-22T23:13:41.389Z,95756.34
2023-08-22T23:16:27.731Z,95767.91
2023-08-22T23:19:13.566Z,95770.09
2023-08-22T23:21:59.619Z,95774.78
2023-08-22T23:24:46.099Z,95760.66
2023-08-22T23:27:32.997Z,95771.28
2023-08-22T23:30:19.116Z,95757.66
2023-08-22T23:33:05.615Z,95764.75
2023-08-22T23:35:52.589Z,95749.22
2023-08-22T23:38:38.880Z,95773.06
2023-08-22T23:41:24.870Z,95745.09
2023-08-22T23:44:12.211Z,95753.34
2023-08-22T23:46:58.318Z,95752.28
2023-08-22T23:49:45.074Z,95749.28
2023-08-22T23:52:31.294Z,95741.41
2023-08-22T23:55:17.371Z,95747.66
2023-08-22T23:58:03.662Z,95729.09
